Ana Sayfa
METAR-TAF:

METAR-TAF

Havaalanları :

Camp Mabry

Austin, Teksas, Amerika Birleşik Devletleri

Enlem: 30-19N, Boylam: 097-46W, yükseklik: 200 m

Güncel hava durumu gözlemi

Rapor saat 11:51 UTC de 43 dakika önce yapıldı.
Rüzgar değişken yönden 3 kt
Sıcaklık 11°C
Nem 82%
Basınç 1018 hPa
Görüş mesafesi: 14.5 km
Açık gökyüzü

METAR: KATT 081151Z AUTO VRB03KT 9SM CLR 11/08 A3005 RMK AO2 SLP172 T01110083 10117 20094 56021

Saat: 06:34 (12:34 UTC)


TAF: eksik

4.000'den fazla havaalanı için hava durumu gözlemleri ve tahminleri (METAR ve TAF raporları).

Kullanılabilir istasyonlar harita üzerinde sarı ve kırmızı noktalarla gösterilir.

İstasyonun adını görmek için fareyi noktanın üzerinde gezdirin.

Sonrasında hava gözlem ve tahminlerini görmek için tıklayın.

Haritayı değiştirmek için: yaklaştırmak için siyah artı işaretli yeşil düğmeye ve uzaklaştırmak için de eksi işaretli düğmeye hızla tıklayın; bitişik haritalar için yeşil okları kullanın.


METAR-TAF: